Time;durP1;ratioP1;P1;durP2;ratioP2;P2;SDS_P1;SDS_P2;PMS_P1;PMS_P2;Temp;Humidity;BMP_temperature;BMP_pressure;BME280_temperature;BME280_humidity;BME280_pressure;Samples;Min_cycle;Max_cycle;Signal;HPM_P1;HPM_P2
2024/01/15 00:01:48;;;;;;;15.73;6.53;;;-2.30;99.90;;;-1.85;100.00;97098.28;5040484;28;20472;-80
2024/01/15 00:04:18;;;;;;;16.43;6.73;;;-2.40;99.90;;;-1.83;100.00;97099.75;5039535;28;20548;-80
2024/01/15 00:06:47;;;;;;;25.53;6.53;;;-2.30;99.90;;;-1.85;100.00;97095.72;5038595;28;20490;-80
2024/01/15 00:09:15;;;;;;;18.33;7.30;;;-2.30;99.90;;;-1.86;100.00;97100.03;5039694;28;20534;-81
2024/01/15 00:11:44;;;;;;;15.37;6.33;;;-2.30;99.90;;;-1.96;100.00;97096.66;5039569;28;20533;-80
2024/01/15 00:14:14;;;;;;;17.37;7.70;;;-2.30;99.90;;;-1.94;100.00;97091.41;5040474;28;20465;-81
2024/01/15 00:16:43;;;;;;;18.77;6.80;;;-2.40;99.90;;;-1.92;100.00;97089.50;5037833;28;20489;-81
2024/01/15 00:19:11;;;;;;;17.43;6.30;;;-2.30;99.90;;;-1.98;100.00;97074.69;5038227;28;20482;-80
2024/01/15 00:21:42;;;;;;;21.30;7.00;;;-2.50;99.90;;;-1.95;100.00;97080.34;5037623;28;20488;-81
2024/01/15 00:24:12;;;;;;;19.57;6.70;;;-2.50;99.90;;;-1.89;100.00;97079.81;5040824;28;20465;-80
2024/01/15 00:26:41;;;;;;;16.50;6.37;;;-2.50;99.90;;;-1.90;100.00;97075.63;5041269;28;20554;-80
2024/01/15 00:29:10;;;;;;;16.17;6.10;;;-2.50;99.90;;;-1.87;100.00;97072.78;5040000;28;20469;-80
2024/01/15 00:31:38;;;;;;;15.83;5.80;;;-2.40;99.90;;;-1.82;100.00;97064.69;5040903;28;20521;-81
2024/01/15 00:34:07;;;;;;;15.07;6.50;;;-2.30;99.90;;;-1.78;100.00;97072.00;5041088;28;20476;-80
2024/01/15 00:36:35;;;;;;;16.00;7.17;;;-2.30;99.90;;;-1.79;100.00;97069.56;5038045;28;20691;-81
2024/01/15 00:39:05;;;;;;;15.73;6.70;;;-2.30;99.90;;;-1.78;100.00;97077.13;5041983;28;20819;-81
2024/01/15 00:41:34;;;;;;;20.80;6.53;;;-2.40;99.90;;;-1.74;100.00;97075.09;5040236;28;20457;-80
2024/01/15 00:44:03;;;;;;;16.60;7.00;;;-2.30;99.90;;;-1.73;100.00;97076.69;5039867;28;20461;-81
2024/01/15 00:46:31;;;;;;;14.27;5.90;;;-2.20;99.90;;;-1.72;100.00;97074.00;5042763;28;20894;-80
2024/01/15 00:49:00;;;;;;;16.60;6.77;;;-2.30;99.90;;;-1.70;100.00;97069.53;5039769;28;20473;-80
2024/01/15 00:51:29;;;;;;;19.83;5.90;;;-2.20;99.90;;;-1.69;100.00;97078.03;5039819;28;20461;-80
2024/01/15 00:53:57;;;;;;;19.03;7.30;;;-2.20;99.90;;;-1.69;100.00;97066.03;5039773;28;20473;-80
2024/01/15 00:56:27;;;;;;;11.37;5.20;;;-2.20;99.90;;;-1.71;100.00;97065.38;5039361;28;20585;-80
2024/01/15 00:58:55;;;;;;;17.97;6.00;;;-2.30;99.90;;;-1.69;100.00;97068.59;5042631;28;20474;-80
2024/01/15 01:01:24;;;;;;;12.70;6.00;;;-2.30;99.90;;;-1.70;100.00;97061.84;5039176;28;20469;-81
2024/01/15 01:03:52;;;;;;;13.90;5.40;;;-2.30;99.90;;;-1.65;100.00;97061.47;5038797;28;20528;-81
2024/01/15 01:06:21;;;;;;;16.70;6.37;;;-2.20;99.90;;;-1.67;100.00;97053.94;5038435;28;20477;-81
2024/01/15 01:08:49;;;;;;;12.47;5.77;;;-2.20;99.90;;;-1.63;100.00;97051.88;5038482;28;20466;-81
2024/01/15 01:11:18;;;;;;;9.60;5.63;;;-2.10;99.90;;;-1.60;100.00;97043.94;5038238;28;20477;-81
2024/01/15 01:13:48;;;;;;;15.23;6.23;;;-2.10;99.90;;;-1.59;100.00;97043.78;5039054;28;20472;-80
2024/01/15 01:16:16;;;;;;;13.37;6.20;;;-2.10;99.90;;;-1.58;100.00;97042.84;5037550;28;20532;-80
2024/01/15 01:18:45;;;;;;;14.40;6.27;;;-2.10;99.90;;;-1.62;100.00;97046.63;5038179;28;20504;-80
2024/01/15 01:21:14;;;;;;;10.50;5.70;;;-2.00;99.90;;;-1.63;100.00;97047.56;5038628;28;20605;-80
2024/01/15 01:23:42;;;;;;;10.70;5.40;;;-2.10;99.90;;;-1.61;100.00;97043.13;5040172;28;20435;-80
2024/01/15 01:26:10;;;;;;;17.73;5.67;;;-2.00;99.90;;;-1.59;100.00;97046.34;5043445;28;20545;-80
2024/01/15 01:28:39;;;;;;;14.37;5.67;;;-2.00;99.90;;;-1.57;100.00;97044.47;5039276;28;20969;-80
2024/01/15 01:31:09;;;;;;;13.30;6.00;;;-2.00;99.90;;;-1.58;100.00;97045.41;5039805;28;20465;-80
2024/01/15 01:33:39;;;;;;;11.87;5.80;;;-2.00;99.90;;;-1.57;100.00;97039.34;5040834;28;20468;-80
2024/01/15 01:36:11;;;;;;;12.10;5.73;;;-2.00;99.90;;;-1.51;100.00;97032.84;5039237;28;20558;-80
2024/01/15 01:38:41;;;;;;;10.83;5.90;;;-2.00;99.90;;;-1.55;100.00;97036.63;5040183;28;20826;-81
2024/01/15 01:41:10;;;;;;;9.37;5.10;;;-2.00;99.90;;;-1.53;100.00;97035.53;5040335;28;20958;-80
2024/01/15 01:43:38;;;;;;;9.13;4.63;;;-2.00;99.90;;;-1.58;100.00;97029.22;5038388;28;20472;-80
2024/01/15 01:46:09;;;;;;;15.43;6.20;;;-2.10;99.90;;;-1.59;100.00;97033.53;5039005;28;20492;-80
2024/01/15 01:48:38;;;;;;;10.27;5.13;;;-2.10;99.90;;;-1.62;100.00;97041.50;5040495;28;20464;-81
2024/01/15 01:51:06;;;;;;;16.93;5.90;;;-2.10;99.90;;;-1.69;100.00;97030.19;5041384;28;20516;-80
2024/01/15 01:53:38;;;;;;;15.17;5.30;;;-2.20;99.90;;;-1.71;100.00;97031.28;5040578;28;20472;-80
2024/01/15 01:56:08;;;;;;;14.97;6.70;;;-2.20;99.90;;;-1.70;100.00;97038.81;5039745;28;21024;-80
2024/01/15 01:58:37;;;;;;;14.17;6.23;;;-2.20;99.90;;;-1.69;100.00;97037.88;5038905;28;20827;-80
2024/01/15 02:01:08;;;;;;;15.00;6.17;;;-2.20;99.90;;;-1.65;100.00;97036.66;5036274;28;21207;-80
2024/01/15 02:03:37;;;;;;;11.30;5.00;;;-2.10;99.90;;;-1.61;100.00;97039.75;5036978;28;20553;-80
2024/01/15 02:06:06;;;;;;;4.50;2.77;;;-2.10;99.90;;;-1.62;100.00;97043.25;5036313;28;20536;-80
2024/01/15 02:08:35;;;;;;;11.83;5.63;;;-2.10;99.90;;;-1.70;100.00;97033.69;5037424;28;20469;-80
2024/01/15 02:11:04;;;;;;;11.70;5.57;;;-2.20;99.90;;;-1.68;100.00;97043.81;5036863;28;20467;-80
2024/01/15 02:13:33;;;;;;;12.60;5.23;;;-2.10;99.90;;;-1.69;100.00;97035.31;5038461;28;20464;-80
2024/01/15 02:16:01;;;;;;;14.93;4.30;;;-2.20;99.90;;;-1.73;100.00;97028.81;5037801;28;20908;-81
2024/01/15 02:18:41;;;;;;;12.20;4.63;;;-2.20;99.90;;;-1.79;100.00;97036.25;5038811;28;20453;-80
2024/01/15 02:21:10;;;;;;;8.63;4.00;;;-2.20;99.90;;;-1.83;100.00;97035.72;5037811;28;20462;-81
2024/01/15 02:23:40;;;;;;;10.93;4.20;;;-2.30;99.90;;;-1.80;100.00;97035.44;5037109;28;20464;-80
2024/01/15 02:26:10;;;;;;;11.03;4.83;;;-2.30;99.90;;;-1.80;100.00;97030.31;5040233;28;20950;-80
2024/01/15 02:28:38;;;;;;;18.37;6.40;;;-2.30;99.90;;;-1.81;100.00;97021.03;5038674;28;20467;-80
2024/01/15 02:31:07;;;;;;;10.77;4.63;;;-2.30;99.90;;;-1.88;100.00;97014.84;5038531;28;20465;-80
2024/01/15 02:33:35;;;;;;;11.00;5.30;;;-2.50;99.90;;;-1.86;100.00;97012.13;5038790;28;20964;-80
2024/01/15 02:36:05;;;;;;;10.40;5.13;;;-2.40;99.90;;;-1.90;100.00;96990.28;5039169;28;20502;-80
2024/01/15 02:38:33;;;;;;;15.10;6.10;;;-2.40;99.90;;;-2.00;100.00;96985.16;5040605;28;20466;-80
2024/01/15 02:41:03;;;;;;;11.20;5.90;;;-2.40;99.90;;;-1.94;100.00;96991.53;5038241;28;21149;-80
2024/01/15 02:43:31;;;;;;;16.77;5.20;;;-2.50;99.90;;;-1.91;100.00;96999.75;5039011;28;20501;-80
2024/01/15 02:46:00;;;;;;;18.17;7.70;;;-2.40;99.90;;;-2.00;100.00;96997.16;5040537;28;20469;-80
2024/01/15 02:48:28;;;;;;;16.67;6.80;;;-2.50;99.90;;;-1.99;100.00;97002.16;5040142;28;20493;-80
2024/01/15 02:50:57;;;;;;;14.67;6.17;;;-2.50;99.90;;;-1.96;100.00;97012.13;5042738;28;20471;-80
2024/01/15 02:53:25;;;;;;;16.97;6.47;;;-2.40;99.90;;;-1.92;100.00;97018.59;5045258;28;20572;-80
2024/01/15 02:55:54;;;;;;;12.83;5.60;;;-2.40;99.90;;;-1.93;100.00;97016.97;5040613;28;21169;-80
2024/01/15 02:58:24;;;;;;;20.40;7.60;;;-2.50;99.90;;;-1.90;100.00;97014.16;5042954;28;20493;-80
2024/01/15 03:00:52;;;;;;;14.20;6.50;;;-2.40;99.90;;;-1.85;100.00;97012.00;5041014;28;20456;-80
2024/01/15 03:03:21;;;;;;;24.83;6.03;;;-2.40;99.90;;;-1.87;100.00;97003.63;5040553;28;20459;-80
2024/01/15 03:05:49;;;;;;;14.13;5.20;;;-2.40;99.90;;;-1.83;100.00;97001.59;5042415;28;20472;-81
2024/01/15 03:08:18;;;;;;;16.70;6.93;;;-2.30;99.90;;;-1.86;100.00;97000.13;5042291;28;20873;-81
2024/01/15 03:10:46;;;;;;;13.90;6.50;;;-2.30;99.90;;;-1.91;100.00;96999.75;5039299;28;20476;-81
2024/01/15 03:13:15;;;;;;;17.70;6.03;;;-2.40;99.90;;;-1.91;100.00;96997.19;5039594;28;20462;-80
2024/01/15 03:15:45;;;;;;;17.70;6.70;;;-2.40;99.90;;;-1.91;100.00;97004.88;5042208;28;20512;-80
2024/01/15 03:18:13;;;;;;;16.17;5.50;;;-2.40;99.90;;;-1.85;100.00;97018.88;5040918;28;20494;-80
2024/01/15 03:20:42;;;;;;;16.10;6.50;;;-2.40;99.90;;;-1.85;100.00;97013.75;5040956;28;20462;-80
2024/01/15 03:23:11;;;;;;;11.57;5.87;;;-2.40;99.90;;;-1.83;100.00;97015.22;5043164;28;20943;-80
2024/01/15 03:25:39;;;;;;;13.67;6.30;;;-2.20;99.90;;;-1.80;100.00;97012.38;5041703;28;20460;-81
2024/01/15 03:28:08;;;;;;;10.37;6.10;;;-2.20;99.90;;;-1.80;100.00;97003.88;5042433;28;20512;-80
2024/01/15 03:30:36;;;;;;;9.57;5.27;;;-2.20;99.90;;;-1.82;100.00;96998.91;5042708;28;20465;-81
2024/01/15 03:33:07;;;;;;;12.77;5.10;;;-2.30;99.90;;;-1.82;100.00;96996.34;5041279;28;20557;-80
2024/01/15 03:35:35;;;;;;;14.13;6.10;;;-2.30;99.90;;;-1.80;100.00;96989.31;5041494;28;20537;-80
2024/01/15 03:38:04;;;;;;;8.47;4.63;;;-2.30;99.90;;;-1.79;100.00;96972.22;5040819;28;20504;-80
2024/01/15 03:40:33;;;;;;;12.77;5.20;;;-2.30;99.90;;;-1.84;100.00;96967.50;5044315;28;20460;-80
2024/01/15 03:43:01;;;;;;;12.67;4.87;;;-2.30;99.90;;;-1.80;100.00;96980.84;5041913;28;20979;-80
2024/01/15 03:45:30;;;;;;;13.80;5.70;;;-2.30;99.90;;;-1.80;100.00;96985.94;5043462;28;21005;-80
2024/01/15 03:47:58;;;;;;;23.40;6.73;;;-2.30;99.90;;;-1.80;100.00;96991.88;5041712;28;20970;-81
2024/01/15 03:50:29;;;;;;;11.40;5.50;;;-2.30;99.90;;;-1.78;100.00;96977.22;5042124;28;20469;-80
2024/01/15 03:52:58;;;;;;;16.30;5.43;;;-2.20;99.90;;;-1.79;100.00;96973.03;5041250;28;20942;-80
2024/01/15 03:55:26;;;;;;;16.50;5.80;;;-2.20;99.90;;;-1.82;100.00;96965.63;5040436;28;20469;-81
2024/01/15 03:57:54;;;;;;;14.60;5.10;;;-2.20;99.90;;;-1.82;100.00;96959.69;5041366;28;20508;-80
2024/01/15 04:00:24;;;;;;;13.20;5.10;;;-2.20;99.90;;;-1.85;100.00;96955.66;5040375;28;20472;-81
2024/01/15 04:02:53;;;;;;;11.67;5.73;;;-2.30;99.90;;;-1.81;100.00;96949.31;5040456;28;20564;-80
2024/01/15 04:05:22;;;;;;;11.90;5.27;;;-2.30;99.90;;;-1.76;100.00;96947.13;5038745;28;20496;-81
2024/01/15 04:07:52;;;;;;;8.90;4.70;;;-2.30;99.90;;;-1.72;100.00;96955.34;5038120;28;20559;-80
2024/01/15 04:10:20;;;;;;;12.23;5.90;;;-2.30;99.90;;;-1.71;100.00;96950.09;5040153;28;20526;-80
2024/01/15 04:12:49;;;;;;;12.73;5.13;;;-2.20;99.90;;;-1.66;100.00;96947.91;5039735;28;20458;-80
2024/01/15 04:15:18;;;;;;;14.40;5.03;;;-2.10;99.90;;;-1.64;100.00;96951.16;5037575;28;20972;-80
2024/01/15 04:17:46;;;;;;;21.60;5.80;;;-2.10;99.90;;;-1.58;100.00;96950.59;5038501;28;20939;-80
2024/01/15 04:20:15;;;;;;;11.53;4.80;;;-2.10;99.90;;;-1.50;100.00;96964.47;5040393;28;20464;-81
2024/01/15 04:22:45;;;;;;;13.57;6.23;;;-2.10;99.90;;;-1.49;100.00;96955.84;5040900;28;20461;-81
2024/01/15 04:25:15;;;;;;;16.73;6.80;;;-2.10;99.90;;;-1.47;100.00;96946.25;5038887;28;20462;-81
2024/01/15 04:27:43;;;;;;;12.23;5.87;;;-1.90;99.90;;;-1.47;100.00;96941.13;5040120;28;20808;-81
2024/01/15 04:30:13;;;;;;;16.53;7.33;;;-1.90;99.90;;;-1.47;100.00;96934.25;5041249;28;21041;-81
2024/01/15 04:32:42;;;;;;;13.70;6.00;;;-1.90;99.90;;;-1.46;100.00;96940.19;5040698;28;20458;-80
2024/01/15 04:35:10;;;;;;;14.13;6.87;;;-1.90;99.90;;;-1.47;100.00;96941.13;5040171;28;20469;-80
2024/01/15 04:37:39;;;;;;;12.27;6.20;;;-2.00;99.90;;;-1.42;100.00;96939.75;5041524;28;20481;-80
2024/01/15 04:40:09;;;;;;;12.80;6.47;;;-1.90;99.90;;;-1.40;100.00;96943.00;5041242;28;20492;-80
2024/01/15 04:42:39;;;;;;;20.03;6.90;;;-1.90;99.90;;;-1.39;100.00;96936.13;5040973;28;20460;-80
2024/01/15 04:45:08;;;;;;;14.50;5.83;;;-1.90;99.90;;;-1.36;100.00;96934.09;5039327;28;20462;-81
2024/01/15 04:47:36;;;;;;;13.53;5.50;;;-1.90;99.90;;;-1.38;100.00;96935.16;5040440;28;20465;-81
2024/01/15 04:50:06;;;;;;;16.00;6.70;;;-1.90;99.90;;;-1.37;100.00;96932.47;5040456;28;20461;-81
2024/01/15 04:52:34;;;;;;;11.30;5.37;;;-1.80;99.90;;;-1.34;100.00;96931.38;5041610;28;20476;-81
2024/01/15 04:55:03;;;;;;;11.37;4.03;;;-1.80;99.90;;;-1.34;100.00;96923.66;5041243;28;20832;-81
2024/01/15 04:57:32;;;;;;;15.53;6.33;;;-1.80;99.90;;;-1.35;100.00;96925.41;5038713;28;20988;-80
2024/01/15 05:00:02;;;;;;;17.50;6.40;;;-1.80;99.90;;;-1.36;100.00;96930.72;5040151;28;20564;-81
2024/01/15 05:02:30;;;;;;;19.33;6.40;;;-1.80;99.90;;;-1.38;100.00;96930.03;5040506;28;20466;-81
2024/01/15 05:04:59;;;;;;;16.33;7.03;;;-1.80;99.90;;;-1.33;100.00;96925.28;5068676;28;20911;-80
2024/01/15 05:07:27;;;;;;;18.40;7.60;;;-1.90;99.90;;;-1.32;100.00;96921.78;5038174;28;20473;-81
2024/01/15 05:09:56;;;;;;;18.33;7.17;;;-1.90;99.90;;;-1.32;100.00;96919.22;5036302;28;20470;-81
2024/01/15 05:12:24;;;;;;;13.17;7.37;;;-1.80;99.90;;;-1.33;100.00;96923.53;5039130;28;20588;-81
2024/01/15 05:14:53;;;;;;;22.70;8.67;;;-1.70;99.90;;;-1.36;100.00;96908.44;5038168;28;20568;-81
2024/01/15 05:17:22;;;;;;;17.83;7.40;;;-1.80;99.90;;;-1.34;100.00;96913.41;5038359;28;20469;-81
2024/01/15 05:19:51;;;;;;;18.83;7.63;;;-1.70;99.90;;;-1.32;100.00;96911.53;5038185;28;20461;-81
2024/01/15 05:22:21;;;;;;;16.50;7.40;;;-1.70;99.90;;;-1.31;100.00;96913.13;5039316;28;20805;-81
2024/01/15 05:24:49;;;;;;;21.90;7.10;;;-1.70;99.90;;;-1.31;100.00;96915.69;5037016;28;20563;-80
2024/01/15 05:27:18;;;;;;;28.30;10.50;;;-1.80;99.90;;;-1.29;100.00;96916.38;5038519;28;20846;-78
2024/01/15 05:29:46;;;;;;;16.50;7.07;;;-1.80;99.90;;;-1.29;100.00;96901.81;5034934;28;20466;-80
2024/01/15 05:32:15;;;;;;;17.07;8.10;;;-1.80;99.90;;;-1.23;100.00;96897.84;5039414;28;20465;-81
2024/01/15 05:34:45;;;;;;;13.33;5.90;;;-1.80;99.90;;;-1.25;100.00;96894.63;5038720;28;20460;-81
2024/01/15 05:37:13;;;;;;;20.33;7.30;;;-1.80;99.90;;;-1.26;100.00;96893.81;5038651;28;20875;-81
2024/01/15 05:39:42;;;;;;;18.63;7.33;;;-1.80;99.90;;;-1.26;100.00;96883.56;5038473;28;20495;-81
2024/01/15 05:42:10;;;;;;;14.03;6.10;;;-1.80;99.90;;;-1.27;100.00;96894.78;5039549;28;20450;-78
2024/01/15 05:44:39;;;;;;;15.53;7.80;;;-1.80;99.90;;;-1.32;100.00;96883.34;5038103;28;20484;-81
2024/01/15 05:47:07;;;;;;;24.17;7.40;;;-1.90;99.90;;;-1.31;100.00;96890.06;5037858;28;20461;-81
2024/01/15 05:49:36;;;;;;;16.43;5.60;;;-1.80;99.90;;;-1.29;100.00;96888.19;5038094;28;20472;-81
2024/01/15 05:52:06;;;;;;;15.53;7.93;;;-1.80;99.90;;;-1.26;100.00;96887.88;5038984;28;20451;-81
2024/01/15 05:54:34;;;;;;;17.40;7.57;;;-1.80;99.90;;;-1.24;100.00;96881.66;5036886;28;20531;-81
2024/01/15 05:57:03;;;;;;;15.47;5.97;;;-1.80;99.90;;;-1.22;100.00;96889.22;5039449;28;20469;-81
2024/01/15 05:59:34;;;;;;;17.00;6.50;;;-1.70;99.90;;;-1.21;100.00;96881.38;5036477;28;20499;-82
2024/01/15 06:02:02;;;;;;;17.70;6.70;;;-1.80;99.90;;;-1.21;100.00;96875.44;5040652;28;20465;-81
2024/01/15 06:04:31;;;;;;;19.00;7.50;;;-1.70;99.90;;;-1.17;100.00;96885.28;5039997;28;20851;-81
2024/01/15 06:06:59;;;;;;;10.73;5.60;;;-1.70;99.90;;;-1.16;100.00;96884.31;5038590;28;20582;-81
2024/01/15 06:09:29;;;;;;;10.83;5.17;;;-1.70;99.90;;;-1.14;100.00;96892.69;5036904;28;20972;-82
2024/01/15 06:11:58;;;;;;;16.10;6.80;;;-1.60;99.90;;;-1.10;100.00;96886.31;5037755;28;21037;-80
2024/01/15 06:14:26;;;;;;;21.53;6.33;;;-1.60;99.90;;;-1.13;100.00;96885.78;5036189;28;20470;-82
2024/01/15 06:16:55;;;;;;;13.53;7.23;;;-1.70;99.90;;;-1.09;100.00;96892.25;5037826;28;20486;-81
2024/01/15 06:19:23;;;;;;;11.60;6.30;;;-1.60;99.90;;;-1.07;100.00;96885.22;5038850;28;20551;-81
2024/01/15 06:21:52;;;;;;;12.70;5.83;;;-1.60;99.90;;;-1.03;100.00;96886.53;5039952;28;20493;-80
2024/01/15 06:24:21;;;;;;;14.83;6.70;;;-1.60;99.90;;;-1.02;100.00;96880.47;5044008;28;20558;-81
2024/01/15 06:26:51;;;;;;;27.67;7.23;;;-1.50;99.90;;;-1.00;100.00;96888.81;5043768;28;20491;-81
2024/01/15 06:29:19;;;;;;;16.37;6.20;;;-1.50;99.90;;;-1.01;100.00;96877.75;5042509;28;20469;-81
2024/01/15 06:31:48;;;;;;;14.07;6.30;;;-1.50;99.90;;;-0.99;100.00;96875.03;5041193;28;20862;-81
2024/01/15 06:34:17;;;;;;;16.00;6.83;;;-1.50;99.90;;;-0.96;100.00;96885.03;5038724;28;20477;-81
2024/01/15 06:36:45;;;;;;;17.90;8.47;;;-1.50;99.90;;;-0.97;100.00;96888.53;5043856;28;20457;-81
2024/01/15 06:39:14;;;;;;;14.27;6.37;;;-1.40;99.90;;;-0.95;100.00;96886.63;5041513;28;20586;-81
2024/01/15 06:41:44;;;;;;;16.73;7.50;;;-1.50;99.90;;;-0.98;100.00;96879.25;5040319;28;20461;-81
2024/01/15 06:44:15;;;;;;;11.93;6.20;;;-1.50;99.90;;;-0.94;100.00;96878.00;5040661;28;20540;-80
2024/01/15 06:46:44;;;;;;;23.63;10.30;;;-1.50;99.90;;;-0.93;100.00;96878.78;5041981;28;20461;-78
2024/01/15 06:49:13;;;;;;;13.47;7.33;;;-1.50;99.90;;;-0.94;100.00;96872.88;5040636;28;20465;-82
2024/01/15 06:51:42;;;;;;;14.47;5.77;;;-1.50;99.90;;;-0.92;100.00;96863.25;5041488;28;20469;-83
2024/01/15 06:54:12;;;;;;;17.97;7.10;;;-1.50;99.90;;;-0.89;100.00;96864.72;5041253;28;20477;-81
2024/01/15 06:56:40;;;;;;;14.37;6.63;;;-1.40;99.90;;;-0.96;100.00;96861.94;5040912;28;20536;-82
2024/01/15 06:59:09;;;;;;;11.50;5.57;;;-1.40;99.90;;;-0.95;100.00;96861.00;5041152;28;20992;-83
2024/01/15 07:01:38;;;;;;;11.87;6.40;;;-1.50;99.90;;;-0.95;100.00;96858.44;5040087;28;21197;-82
2024/01/15 07:04:08;;;;;;;15.50;7.27;;;-1.40;99.90;;;-0.96;100.00;96859.38;5039842;28;20549;-82
2024/01/15 07:06:36;;;;;;;13.80;6.87;;;-1.30;99.90;;;-0.93;100.00;96858.25;5040990;28;20460;-83
2024/01/15 07:09:06;;;;;;;15.43;5.27;;;-1.30;99.90;;;-0.93;100.00;96856.50;5040659;28;20871;-83
2024/01/15 07:11:34;;;;;;;16.37;6.33;;;-1.40;99.90;;;-0.92;100.00;96855.56;5039790;28;21249;-84
2024/01/15 07:14:02;;;;;;;14.60;6.73;;;-1.40;99.90;;;-0.89;100.00;96855.28;5040274;28;20519;-81
2024/01/15 07:16:31;;;;;;;14.37;5.47;;;-1.40;99.90;;;-0.88;100.00;96859.47;5038846;28;20460;-81
2024/01/15 07:19:07;;;;;;;11.70;6.30;;;-1.50;99.90;;;-0.87;100.00;96858.50;5041347;28;21488;-81
2024/01/15 07:21:36;;;;;;;18.40;6.33;;;-1.40;99.90;;;-0.84;100.00;96862.53;5040283;28;20474;-81
2024/01/15 07:24:05;;;;;;;14.93;6.17;;;-1.40;99.90;;;-0.82;100.00;96856.31;5040371;28;20864;-81
2024/01/15 07:26:34;;;;;;;14.57;7.10;;;-1.30;99.90;;;-0.81;100.00;96855.34;5041416;28;20472;-81
2024/01/15 07:29:03;;;;;;;18.03;7.67;;;-1.40;99.90;;;-0.81;100.00;96847.66;5041350;28;20488;-81
2024/01/15 07:31:32;;;;;;;13.17;6.27;;;-1.40;99.90;;;-0.81;100.00;96852.78;5039985;28;20920;-81
2024/01/15 07:34:01;;;;;;;12.00;5.67;;;-1.30;99.90;;;-0.81;100.00;96851.97;5040377;28;20469;-82
2024/01/15 07:36:31;;;;;;;11.80;5.93;;;-1.40;99.90;;;-0.79;100.00;96850.88;5041223;28;20461;-81
2024/01/15 07:39:00;;;;;;;16.67;7.07;;;-1.30;99.90;;;-0.83;100.00;96854.69;5039937;28;20493;-82
2024/01/15 07:41:28;;;;;;;11.13;7.27;;;-1.50;99.90;;;-0.80;100.00;96863.88;5039433;28;20470;-81
2024/01/15 07:43:57;;;;;;;13.07;6.60;;;-1.40;99.90;;;-0.77;100.00;96861.81;5040138;28;20466;-83
2024/01/15 07:46:25;;;;;;;14.83;5.77;;;-1.40;99.90;;;-0.74;100.00;96845.31;5039648;28;20822;-80
2024/01/15 07:48:56;;;;;;;10.80;5.37;;;-1.30;99.90;;;-0.75;100.00;96852.19;5042230;28;20461;-81
2024/01/15 07:51:25;;;;;;;8.43;5.90;;;-1.30;99.90;;;-0.74;100.00;96853.81;5038364;28;20560;-81
2024/01/15 07:53:56;;;;;;;13.47;6.63;;;-1.20;99.90;;;-0.74;100.00;96842.75;5042394;28;20563;-81
2024/01/15 07:56:24;;;;;;;10.37;5.30;;;-1.30;99.90;;;-0.75;100.00;96847.06;5039464;28;20472;-81
2024/01/15 07:58:53;;;;;;;11.47;6.20;;;-1.20;99.90;;;-0.80;100.00;96859.50;5040164;28;20535;-81
2024/01/15 08:01:21;;;;;;;13.03;5.70;;;-1.30;99.90;;;-0.79;100.00;96856.00;5038465;28;20465;-81
2024/01/15 08:03:49;;;;;;;11.43;5.17;;;-1.40;99.90;;;-0.76;100.00;96860.84;5039086;28;20466;-81
2024/01/15 08:06:18;;;;;;;12.87;6.63;;;-1.40;99.90;;;-0.76;100.00;96848.00;5039148;28;20485;-83
2024/01/15 08:08:47;;;;;;;12.30;5.87;;;-1.20;99.90;;;-0.73;100.00;96863.13;5039745;28;20458;-84
2024/01/15 08:11:17;;;;;;;12.37;6.27;;;-1.30;99.90;;;-0.71;100.00;96858.66;5039341;28;20458;-82
2024/01/15 08:13:45;;;;;;;13.53;6.13;;;-1.30;99.90;;;-0.68;100.00;96857.56;5041385;28;20557;-81
2024/01/15 08:16:14;;;;;;;16.13;6.20;;;-1.20;99.90;;;-0.70;100.00;96865.41;5040155;28;20466;-85
2024/01/15 08:18:43;;;;;;;16.53;6.57;;;-1.20;99.90;;;-0.65;100.00;96862.38;5044254;28;20460;-86
2024/01/15 08:21:13;;;;;;;12.00;5.73;;;-1.20;99.90;;;-0.62;100.00;96868.03;5049071;28;20493;-86
2024/01/15 08:23:42;;;;;;;16.90;6.27;;;-1.20;99.90;;;-0.60;100.00;96861.00;5045465;28;20461;-84
2024/01/15 08:26:11;;;;;;;12.67;5.80;;;-1.10;99.90;;;-0.57;100.00;96847.06;5039408;28;20472;-83
2024/01/15 08:28:41;;;;;;;13.87;5.57;;;-1.20;99.90;;;-0.59;100.00;96836.16;5038889;28;20466;-80
2024/01/15 08:31:10;;;;;;;15.10;6.03;;;-1.10;99.90;;;-0.56;100.00;96848.69;5040308;28;21008;-82
2024/01/15 08:33:39;;;;;;;15.43;6.90;;;-1.10;99.90;;;-0.57;100.00;96858.16;5038928;28;20461;-81
2024/01/15 08:36:08;;;;;;;13.10;5.90;;;-1.10;99.90;;;-0.59;100.00;96847.19;5040257;28;20532;-81
2024/01/15 08:38:36;;;;;;;12.63;6.20;;;-1.10;99.90;;;-0.58;100.00;96843.69;5038893;28;20458;-79
2024/01/15 08:41:05;;;;;;;12.53;6.37;;;-1.20;99.90;;;-0.58;100.00;96841.13;5041384;28;20502;-81
2024/01/15 08:43:34;;;;;;;12.70;6.30;;;-1.20;99.90;;;-0.53;100.00;96843.25;5036284;28;20469;-80
2024/01/15 08:46:04;;;;;;;15.80;6.37;;;-1.10;99.90;;;-0.53;100.00;96838.13;5039521;28;20477;-79
2024/01/15 08:48:32;;;;;;;15.70;5.80;;;-1.10;99.90;;;-0.49;100.00;96836.06;5040975;28;20465;-80
2024/01/15 08:51:01;;;;;;;20.47;6.70;;;-1.00;99.90;;;-0.45;100.00;96842.53;5039781;28;20469;-80
2024/01/15 08:53:29;;;;;;;12.00;5.73;;;-0.90;99.90;;;-0.48;100.00;96842.78;5041070;28;20495;-79
2024/01/15 08:55:58;;;;;;;12.63;5.67;;;-1.00;99.90;;;-0.43;100.00;96843.16;5040905;28;20447;-80
2024/01/15 08:58:27;;;;;;;12.53;6.00;;;-1.00;99.90;;;-0.41;100.00;96843.81;5040331;28;20465;-80
2024/01/15 09:00:55;;;;;;;12.47;6.10;;;-1.00;99.90;;;-0.47;100.00;96841.84;5040152;28;20497;-79
2024/01/15 09:03:26;;;;;;;12.23;5.10;;;-1.00;99.90;;;-0.47;100.00;96840.09;5040129;28;20489;-79
2024/01/15 09:05:54;;;;;;;12.13;5.27;;;-1.00;99.90;;;-0.51;100.00;96839.59;5042779;28;20546;-80
2024/01/15 09:08:23;;;;;;;10.57;6.10;;;-1.00;99.90;;;-0.45;100.00;96838.16;5036603;28;20554;-81
2024/01/15 09:10:51;;;;;;;11.77;6.50;;;-0.90;99.90;;;-0.39;100.00;96847.06;5039112;28;20436;-80
2024/01/15 09:13:20;;;;;;;16.60;9.07;;;-0.90;99.90;;;-0.42;100.00;96844.78;5035444;28;20540;-76
2024/01/15 09:15:51;;;;;;;7.90;5.47;;;-0.80;99.90;;;-0.40;100.00;96845.44;5038701;28;20520;-83
2024/01/15 09:18:20;;;;;;;12.00;5.33;;;-0.80;99.90;;;-0.42;100.00;96837.09;5036757;28;20474;-81
2024/01/15 09:20:50;;;;;;;14.80;6.90;;;-0.90;99.90;;;-0.40;100.00;96841.09;5036385;28;20502;-81
2024/01/15 09:23:18;;;;;;;10.40;5.53;;;-0.80;99.90;;;-0.36;100.00;96846.75;5037788;28;20817;-81
2024/01/15 09:25:47;;;;;;;11.00;5.73;;;-0.90;99.90;;;-0.37;100.00;96845.13;5038656;28;20517;-81
2024/01/15 09:28:16;;;;;;;9.20;5.00;;;-0.80;99.90;;;-0.35;100.00;96843.25;5037612;28;20484;-82
2024/01/15 09:30:47;;;;;;;13.50;5.60;;;-0.80;99.90;;;-0.38;100.00;96854.59;5038838;28;20470;-81
2024/01/15 09:33:15;;;;;;;10.97;6.43;;;-0.90;99.90;;;-0.37;100.00;96840.81;5036802;28;20908;-81
2024/01/15 09:35:44;;;;;;;11.90;6.10;;;-0.90;99.90;;;-0.32;100.00;96842.94;5038493;28;20940;-82
2024/01/15 09:38:14;;;;;;;12.70;6.13;;;-0.90;99.90;;;-0.27;100.00;96838.16;5038826;28;20465;-81
2024/01/15 09:40:46;;;;;;;10.87;5.57;;;-0.80;99.90;;;-0.28;100.00;96839.13;5039733;28;21003;-81
2024/01/15 09:43:16;;;;;;;13.93;7.20;;;-0.80;99.90;;;-0.27;100.00;96833.00;5038572;28;20463;-81
2024/01/15 09:45:46;;;;;;;13.30;5.20;;;-0.80;99.90;;;-0.29;100.00;96827.22;5038118;28;20451;-81
2024/01/15 09:48:14;;;;;;;16.77;8.30;;;-0.90;99.90;;;-0.25;100.00;96831.13;5039599;28;21149;-81
2024/01/15 09:50:43;;;;;;;11.73;6.33;;;-0.80;99.90;;;-0.27;100.00;96831.25;5038460;28;20490;-81
2024/01/15 09:53:16;;;;;;;9.90;6.10;;;-0.80;99.90;;;-0.24;100.00;96840.41;5038988;28;20485;-81
2024/01/15 09:55:46;;;;;;;10.00;5.23;;;-0.70;99.90;;;-0.17;100.00;96836.28;5039876;28;21000;-81
2024/01/15 09:58:15;;;;;;;13.20;7.00;;;-0.70;99.90;;;-0.15;100.00;96850.63;5035823;28;20463;-81
2024/01/15 10:00:45;;;;;;;11.73;5.90;;;-0.70;99.90;;;-0.15;100.00;96834.38;5036733;28;20907;-82
2024/01/15 10:03:15;;;;;;;10.23;5.10;;;-0.60;99.90;;;-0.12;100.00;96842.59;5038937;28;20494;-82
2024/01/15 10:05:44;;;;;;;7.17;4.37;;;-0.60;99.90;;;-0.10;100.00;96842.44;5038769;28;20518;-80
2024/01/15 10:08:15;;;;;;;11.23;5.90;;;-0.60;99.90;;;-0.06;100.00;96843.75;5037147;28;20503;-81
2024/01/15 10:10:44;;;;;;;9.63;5.43;;;-0.60;99.90;;;-0.05;100.00;96846.19;5036949;28;20486;-81
2024/01/15 10:13:14;;;;;;;13.73;5.70;;;-0.50;99.90;;;-0.05;100.00;96822.25;5036023;28;20467;-79